createdAt,value
2022-08-20T00:01:16.859Z,2.97
2022-08-20T00:03:44.867Z,2.88
2022-08-20T00:06:22.753Z,2.92
2022-08-20T00:08:50.962Z,2.00
2022-08-20T00:11:23.557Z,1.85
2022-08-20T00:13:55.798Z,2.20
2022-08-20T00:16:25.644Z,2.20
2022-08-20T00:18:53.110Z,1.80
2022-08-20T00:21:21.608Z,2.33
2022-08-20T00:23:52.616Z,2.10
2022-08-20T00:26:21.033Z,2.20
2022-08-20T00:28:48.782Z,2.22
2022-08-20T00:31:20.164Z,1.98
2022-08-20T00:33:48.572Z,1.92
2022-08-20T00:36:17.579Z,1.63
2022-08-20T00:38:46.767Z,2.08
2022-08-20T00:41:25.712Z,1.65
2022-08-20T00:44:05.060Z,1.45
2022-08-20T00:46:33.149Z,1.95
2022-08-20T00:49:03.672Z,2.05
2022-08-20T00:51:35.740Z,1.63
2022-08-20T00:54:10.913Z,1.85
2022-08-20T00:56:39.309Z,1.52
2022-08-20T00:59:12.388Z,1.40
2022-08-20T01:01:54.959Z,1.65
2022-08-20T01:06:56.101Z,1.60
2022-08-20T01:09:49.873Z,1.90
2022-08-20T01:12:13.733Z,1.58
2022-08-20T01:14:46.757Z,1.70
2022-08-20T01:17:19.024Z,2.13
2022-08-20T01:19:56.177Z,1.48
2022-08-20T01:23:03.620Z,1.80
2022-08-20T01:26:04.182Z,3.30
2022-08-20T01:28:48.299Z,3.17
2022-08-20T01:31:20.039Z,1.70
2022-08-20T01:33:48.330Z,1.77
2022-08-20T01:36:18.308Z,1.60
2022-08-20T01:38:53.863Z,1.90
2022-08-20T01:41:28.500Z,2.10
2022-08-20T01:43:58.564Z,2.00
2022-08-20T01:46:44.060Z,1.67
2022-08-20T01:49:27.037Z,1.75
2022-08-20T01:51:57.597Z,1.90
2022-08-20T01:54:25.593Z,2.15
2022-08-20T01:57:05.776Z,1.80
2022-08-20T01:59:33.087Z,1.77
2022-08-20T02:02:00.602Z,1.70
2022-08-20T02:04:27.952Z,1.63
2022-08-20T02:06:58.895Z,2.10
2022-08-20T02:09:34.436Z,2.00
2022-08-20T02:12:03.573Z,1.55
2022-08-20T02:14:30.936Z,1.80
2022-08-20T02:16:58.638Z,2.22
2022-08-20T02:19:32.460Z,1.90
2022-08-20T02:22:04.306Z,1.90
2022-08-20T02:24:31.612Z,1.70
2022-08-20T02:26:58.979Z,2.47
2022-08-20T02:29:26.300Z,1.65
2022-08-20T02:32:24.227Z,1.60
2022-08-20T02:34:42.282Z,2.17
2022-08-20T02:37:10.376Z,2.10
2022-08-20T02:39:37.719Z,2.00
2022-08-20T02:42:05.270Z,2.30
2022-08-20T02:44:32.547Z,2.33
2022-08-20T02:47:00.950Z,1.67
2022-08-20T02:49:28.280Z,2.25
2022-08-20T02:51:55.579Z,1.90
2022-08-20T02:54:22.860Z,2.15
2022-08-20T02:56:50.671Z,1.55
2022-08-20T02:59:19.837Z,1.80
2022-08-20T03:01:48.474Z,1.90
2022-08-20T03:04:31.361Z,1.73
2022-08-20T03:06:59.756Z,1.50
2022-08-20T03:09:27.272Z,1.65
2022-08-20T03:11:54.539Z,1.88
2022-08-20T03:14:21.907Z,1.85
2022-08-20T03:16:49.556Z,3.58
2022-08-20T03:19:16.898Z,1.80
2022-08-20T03:21:44.180Z,2.08
2022-08-20T03:24:11.460Z,3.17
2022-08-20T03:26:38.804Z,1.77
2022-08-20T03:29:06.140Z,2.40
2022-08-20T03:31:33.508Z,3.38
2022-08-20T03:34:01.075Z,2.47
2022-08-20T03:36:29.292Z,2.20
2022-08-20T03:38:59.195Z,2.30
2022-08-20T03:41:27.150Z,2.13
2022-08-20T03:43:54.938Z,2.30
2022-08-20T03:46:22.955Z,2.67
2022-08-20T03:48:56.649Z,2.78
2022-08-20T03:51:29.834Z,3.08
2022-08-20T03:53:57.543Z,2.80
2022-08-20T03:56:26.163Z,2.90
2022-08-20T03:58:53.816Z,2.65
2022-08-20T04:01:46.150Z,2.60
2022-08-20T04:04:12.078Z,2.72
2022-08-20T04:06:41.273Z,2.50
2022-08-20T04:09:12.169Z,2.85
2022-08-20T04:11:41.319Z,2.67
2022-08-20T04:14:11.143Z,4.82
2022-08-20T04:16:40.324Z,2.65
2022-08-20T04:19:08.104Z,2.85
2022-08-20T04:21:36.423Z,2.30
2022-08-20T04:24:05.663Z,2.38
2022-08-20T04:26:35.237Z,3.22
2022-08-20T04:29:02.948Z,2.65
2022-08-20T04:31:33.421Z,2.25
2022-08-20T04:34:04.135Z,2.78
2022-08-20T04:36:31.448Z,2.83
2022-08-20T04:38:58.696Z,2.72
2022-08-20T04:41:25.939Z,2.50
2022-08-20T04:43:55.887Z,2.30
2022-08-20T04:46:25.681Z,2.67
2022-08-20T04:48:53.735Z,2.22
2022-08-20T04:51:23.021Z,2.22
2022-08-20T04:53:53.994Z,2.40
2022-08-20T04:56:24.441Z,2.65
2022-08-20T04:58:53.819Z,2.25
2022-08-20T05:01:21.142Z,2.55
2022-08-20T05:03:48.384Z,2.63
2022-08-20T05:06:17.816Z,2.22
2022-08-20T05:08:45.430Z,2.40
2022-08-20T05:11:34.201Z,2.13
2022-08-20T05:14:11.398Z,2.35
2022-08-20T05:16:40.348Z,2.30
2022-08-20T05:19:10.381Z,2.20
2022-08-20T05:21:38.691Z,2.22
2022-08-20T05:24:06.941Z,2.00
2022-08-20T05:26:34.643Z,2.13
2022-08-20T05:29:05.082Z,2.25
2022-08-20T05:31:33.686Z,2.47
2022-08-20T05:34:09.589Z,2.00
2022-08-20T05:36:46.963Z,2.33
2022-08-20T05:39:18.878Z,2.22
2022-08-20T05:41:46.556Z,2.35
2022-08-20T05:44:15.033Z,2.40
2022-08-20T05:46:44.915Z,2.53
2022-08-20T05:49:16.234Z,2.50
2022-08-20T05:51:44.158Z,2.90
2022-08-20T05:54:12.616Z,2.42
2022-08-20T05:56:40.396Z,2.90
2022-08-20T05:59:09.515Z,3.00
2022-08-20T06:01:39.134Z,3.13
2022-08-20T06:04:26.911Z,2.65
2022-08-20T06:07:05.612Z,3.60
2022-08-20T06:09:33.663Z,2.72
2022-08-20T06:12:03.285Z,2.90
2022-08-20T06:14:31.591Z,3.00
2022-08-20T06:17:15.231Z,2.80
2022-08-20T06:19:44.856Z,2.78
2022-08-20T06:22:19.216Z,2.53
2022-08-20T06:24:51.815Z,2.40
2022-08-20T06:27:20.456Z,2.25
2022-08-20T06:29:48.285Z,2.83
2022-08-20T06:32:15.668Z,2.22
2022-08-20T06:34:49.876Z,2.13
2022-08-20T06:37:23.628Z,2.00
2022-08-20T06:40:12.652Z,1.88
2022-08-20T06:42:45.715Z,2.47
2022-08-20T06:45:24.435Z,1.92
2022-08-20T06:47:54.047Z,1.40
2022-08-20T06:50:33.500Z,1.83
2022-08-20T06:53:00.785Z,1.60
2022-08-20T06:55:28.137Z,1.67
2022-08-20T06:58:07.951Z,1.90
2022-08-20T07:00:55.277Z,1.42
2022-08-20T07:03:22.616Z,1.90
2022-08-20T07:05:49.936Z,2.13
2022-08-20T07:08:22.143Z,1.80
2022-08-20T07:10:50.824Z,2.47
2022-08-20T07:13:18.182Z,1.77
2022-08-20T07:15:45.579Z,2.45
2022-08-20T07:18:14.112Z,1.98
2022-08-20T07:20:42.183Z,1.60
2022-08-20T07:23:12.075Z,1.73
2022-08-20T07:25:44.586Z,1.80
2022-08-20T07:28:15.372Z,2.08
2022-08-20T07:31:12.031Z,1.60
2022-08-20T07:33:41.498Z,1.55
2022-08-20T07:36:09.887Z,1.70
2022-08-20T07:38:37.912Z,1.88
2022-08-20T07:41:13.197Z,1.90
2022-08-20T07:43:42.311Z,2.28
2022-08-20T07:46:10.281Z,2.00
2022-08-20T07:48:41.894Z,1.52
2022-08-20T07:51:10.910Z,1.40
2022-08-20T07:53:40.351Z,1.92
2022-08-20T07:56:11.562Z,1.60
2022-08-20T07:58:52.399Z,1.98
2022-08-20T08:01:25.912Z,2.25
2022-08-20T08:03:53.692Z,2.15
2022-08-20T08:06:28.994Z,1.83
2022-08-20T08:09:10.044Z,2.10
2022-08-20T08:11:40.401Z,2.00
2022-08-20T08:14:10.151Z,1.55
2022-08-20T08:16:38.561Z,2.05
2022-08-20T08:19:09.813Z,2.00
2022-08-20T08:21:37.549Z,2.63
2022-08-20T08:24:04.991Z,2.28
2022-08-20T08:26:32.270Z,2.50
2022-08-20T08:28:59.538Z,2.05
2022-08-20T08:31:27.247Z,2.53
2022-08-20T08:33:54.713Z,1.88
2022-08-20T08:36:22.221Z,2.20
2022-08-20T08:38:49.774Z,2.35
2022-08-20T08:41:34.134Z,3.25
2022-08-20T08:44:14.264Z,1.92
2022-08-20T08:46:49.031Z,2.63
2022-08-20T08:49:20.268Z,2.28
2022-08-20T08:51:56.769Z,2.03
2022-08-20T08:54:28.599Z,2.13
2022-08-20T08:56:56.081Z,1.92
2022-08-20T08:59:23.769Z,2.50
2022-08-20T09:01:57.175Z,2.38
2022-08-20T09:04:32.387Z,2.30
2022-08-20T09:07:02.977Z,2.00
2022-08-20T09:09:37.968Z,1.55
2022-08-20T09:12:11.843Z,1.60
2022-08-20T09:14:39.475Z,2.45
2022-08-20T09:17:07.663Z,2.13
2022-08-20T09:19:35.416Z,2.03
2022-08-20T09:22:10.952Z,2.10
2022-08-20T09:24:38.563Z,1.88
2022-08-20T09:27:06.407Z,1.98
2022-08-20T09:29:34.200Z,1.73
2022-08-20T09:32:07.223Z,1.60
2022-08-20T09:34:42.574Z,2.53
2022-08-20T09:37:09.945Z,1.75
2022-08-20T09:39:37.600Z,1.98
2022-08-20T09:42:10.132Z,2.28
2022-08-20T09:44:37.653Z,1.65
2022-08-20T09:47:05.069Z,1.80
2022-08-20T09:49:32.602Z,2.78
2022-08-20T09:52:01.665Z,1.90
2022-08-20T09:54:30.204Z,1.60
2022-08-20T09:56:58.543Z,1.80
2022-08-20T09:59:26.493Z,2.15
2022-08-20T10:01:53.814Z,1.95
2022-08-20T10:04:21.110Z,1.50
2022-08-20T10:06:48.332Z,1.85
2022-08-20T10:09:16.714Z,1.90
2022-08-20T10:11:43.973Z,1.40
2022-08-20T10:14:11.249Z,1.23
2022-08-20T10:16:38.563Z,1.40
2022-08-20T10:19:06.159Z,1.30
2022-08-20T10:21:38.117Z,1.30
2022-08-20T10:24:06.324Z,1.00
2022-08-20T10:26:33.746Z,1.40
2022-08-20T10:29:00.951Z,1.55
2022-08-20T10:31:28.284Z,1.50
2022-08-20T10:33:56.663Z,1.10
2022-08-20T10:36:23.912Z,1.27
2022-08-20T10:38:51.196Z,1.20
2022-08-20T10:41:19.839Z,1.20
2022-08-20T10:43:47.461Z,1.20
2022-08-20T10:46:14.996Z,1.25
2022-08-20T10:48:42.301Z,1.20
2022-08-20T10:51:09.499Z,1.33
2022-08-20T10:53:36.811Z,1.30
2022-08-20T10:56:04.475Z,1.05
2022-08-20T10:58:39.673Z,1.13
2022-08-20T11:01:07.743Z,1.38
2022-08-20T11:03:35.996Z,1.63
2022-08-20T11:06:04.104Z,1.45
2022-08-20T11:08:34.023Z,1.40
2022-08-20T11:11:04.820Z,1.58
2022-08-20T11:13:33.307Z,1.20
2022-08-20T11:16:01.803Z,1.20
2022-08-20T11:18:29.479Z,1.27
2022-08-20T11:20:57.209Z,1.15
2022-08-20T11:23:24.733Z,1.38
2022-08-20T11:25:52.023Z,1.50
2022-08-20T11:28:31.757Z,1.08
2022-08-20T11:31:00.351Z,1.40
2022-08-20T11:33:27.924Z,1.15
2022-08-20T11:35:55.239Z,1.20
2022-08-20T11:38:22.604Z,1.20
2022-08-20T11:40:49.918Z,1.40
2022-08-20T11:43:17.959Z,1.50
2022-08-20T11:45:49.708Z,1.58
2022-08-20T11:48:18.039Z,1.38
2022-08-20T11:50:46.219Z,1.30
2022-08-20T11:53:13.586Z,1.50
2022-08-20T11:55:43.271Z,1.40
2022-08-20T11:58:11.583Z,1.60
2022-08-20T12:00:39.214Z,1.60
2022-08-20T12:03:09.221Z,1.95
2022-08-20T12:05:38.453Z,1.20
2022-08-20T12:08:06.536Z,1.30
2022-08-20T12:10:34.766Z,1.38
2022-08-20T12:13:04.543Z,1.00
2022-08-20T12:15:36.888Z,1.10
2022-08-20T12:18:10.579Z,1.30
2022-08-20T12:20:37.820Z,1.13
2022-08-20T12:23:05.244Z,1.30
2022-08-20T12:25:32.929Z,1.30
2022-08-20T12:28:00.791Z,1.10
2022-08-20T12:30:28.124Z,1.23
2022-08-20T12:32:55.560Z,1.35
2022-08-20T12:35:23.338Z,1.80
2022-08-20T12:37:50.764Z,1.05
2022-08-20T12:40:31.858Z,1.00
2022-08-20T12:43:02.402Z,1.45
2022-08-20T12:45:30.143Z,1.30
2022-08-20T12:48:06.286Z,1.33
2022-08-20T12:50:35.324Z,1.30
2022-08-20T12:53:03.572Z,1.25
2022-08-20T12:55:31.536Z,0.93
2022-08-20T12:58:01.241Z,1.10
2022-08-20T13:00:44.392Z,0.88
2022-08-20T13:03:14.747Z,1.13
2022-08-20T13:05:42.995Z,1.02
2022-08-20T13:08:12.236Z,1.00
2022-08-20T13:10:44.396Z,1.02
2022-08-20T13:13:13.427Z,1.00
2022-08-20T13:15:40.717Z,0.82
2022-08-20T13:18:08.360Z,0.90
2022-08-20T13:20:36.417Z,1.00
2022-08-20T13:23:05.153Z,1.02
2022-08-20T13:25:33.216Z,1.15
2022-08-20T13:28:04.395Z,1.08
2022-08-20T13:30:34.922Z,0.88
2022-08-20T13:33:02.163Z,0.98
2022-08-20T13:35:29.427Z,1.13
2022-08-20T13:37:56.893Z,1.10
2022-08-20T13:40:24.290Z,1.10
2022-08-20T13:42:51.828Z,1.00
2022-08-20T13:45:19.359Z,0.90
2022-08-20T13:47:47.060Z,1.00
2022-08-20T13:50:17.826Z,1.00
2022-08-20T13:52:54.986Z,0.80
2022-08-20T13:55:25.308Z,0.80
2022-08-20T13:57:53.110Z,0.70
2022-08-20T14:00:31.030Z,0.70
2022-08-20T14:03:00.449Z,0.90
2022-08-20T14:05:28.710Z,0.90
2022-08-20T14:07:56.279Z,0.70
2022-08-20T14:10:26.916Z,0.90
2022-08-20T14:12:54.170Z,1.05
2022-08-20T14:15:21.409Z,0.90
2022-08-20T14:17:54.064Z,1.00
2022-08-20T14:22:50.427Z,0.93
2022-08-20T14:25:19.935Z,1.15
2022-08-20T14:27:47.732Z,1.00
2022-08-20T14:30:18.024Z,0.90
2022-08-20T14:32:45.392Z,0.82
2022-08-20T14:35:12.917Z,0.98
2022-08-20T14:37:44.163Z,0.80
2022-08-20T14:40:14.903Z,1.05
2022-08-20T14:42:43.175Z,1.00
2022-08-20T14:45:12.457Z,1.10
2022-08-20T14:47:45.459Z,1.00
2022-08-20T14:50:16.816Z,1.10
2022-08-20T14:52:44.699Z,1.02
2022-08-20T14:55:17.764Z,1.30
2022-08-20T14:57:45.635Z,0.95
2022-08-20T15:00:19.147Z,0.90
2022-08-20T15:02:47.118Z,0.70
2022-08-20T15:05:14.652Z,0.70
2022-08-20T15:07:45.176Z,0.70
2022-08-20T15:12:47.695Z,0.80
2022-08-20T15:15:16.847Z,0.70
2022-08-20T15:17:50.929Z,0.95
2022-08-20T15:20:21.197Z,0.60
2022-08-20T15:22:49.515Z,0.70
2022-08-20T15:25:20.004Z,0.80
2022-08-20T15:27:47.946Z,0.70
2022-08-20T15:30:20.441Z,0.90
2022-08-20T15:32:54.681Z,0.90
2022-08-20T15:35:27.263Z,1.85
2022-08-20T15:37:58.070Z,0.90
2022-08-20T15:40:28.679Z,0.75
2022-08-20T15:43:01.362Z,0.90
2022-08-20T15:45:28.810Z,0.77
2022-08-20T15:48:00.543Z,1.05
2022-08-20T15:50:52.645Z,0.70
2022-08-20T15:53:37.868Z,0.88
2022-08-20T15:56:26.258Z,0.80
2022-08-20T15:59:24.047Z,0.75
2022-08-20T16:01:54.005Z,1.08
2022-08-20T16:04:33.305Z,0.73
2022-08-20T16:07:17.660Z,0.88
2022-08-20T16:10:01.317Z,0.80
2022-08-20T16:12:38.367Z,1.30
2022-08-20T16:15:12.808Z,1.10
2022-08-20T16:17:58.123Z,1.00
2022-08-20T16:20:48.863Z,1.17
2022-08-20T16:23:18.798Z,0.90
2022-08-20T16:26:14.056Z,1.10
2022-08-20T16:28:57.009Z,1.00
2022-08-20T16:31:30.448Z,1.10
2022-08-20T16:34:33.929Z,1.05
2022-08-20T16:37:22.867Z,0.80
2022-08-20T16:40:05.673Z,0.95
2022-08-20T16:42:38.771Z,0.90
2022-08-20T16:45:16.987Z,0.90
2022-08-20T16:47:46.609Z,0.98
2022-08-20T16:50:20.003Z,0.90
2022-08-20T16:52:48.299Z,0.70
2022-08-20T16:55:15.691Z,0.80
2022-08-20T16:57:43.039Z,1.00
2022-08-20T17:00:15.895Z,0.88
2022-08-20T17:02:50.639Z,0.82
2022-08-20T17:05:19.720Z,0.90
2022-08-20T17:07:57.313Z,1.27
2022-08-20T17:10:29.645Z,0.90
2022-08-20T17:13:04.970Z,0.90
2022-08-20T17:15:35.131Z,1.00
2022-08-20T17:18:26.204Z,0.90
2022-08-20T17:20:54.095Z,0.88
2022-08-20T17:23:22.784Z,1.00
2022-08-20T17:26:02.391Z,0.77
2022-08-20T17:28:34.675Z,0.95
2022-08-20T17:31:02.607Z,0.90
2022-08-20T17:33:39.183Z,1.30
2022-08-20T17:36:18.038Z,1.20
2022-08-20T17:38:53.182Z,0.82
2022-08-20T17:41:25.543Z,1.00
2022-08-20T17:44:02.457Z,0.68
2022-08-20T17:46:34.132Z,0.80
2022-08-20T17:49:06.683Z,1.45
2022-08-20T17:51:38.776Z,1.00
2022-08-20T17:54:16.774Z,0.90
2022-08-20T17:56:44.190Z,1.23
2022-08-20T17:59:59.670Z,1.00
2022-08-20T18:02:20.857Z,1.45
2022-08-20T18:04:49.299Z,1.20
2022-08-20T18:07:31.702Z,1.73
2022-08-20T18:10:15.383Z,0.95
2022-08-20T18:12:50.128Z,1.38
2022-08-20T18:15:24.544Z,1.98
2022-08-20T18:17:57.999Z,1.42
2022-08-20T18:20:44.008Z,1.50
2022-08-20T18:23:24.410Z,1.30
2022-08-20T18:26:06.408Z,1.50
2022-08-20T18:28:38.591Z,1.30
2022-08-20T18:31:09.021Z,1.58
2022-08-20T18:33:42.985Z,1.35
2022-08-20T18:36:22.840Z,1.33
2022-08-20T18:39:02.108Z,1.58
2022-08-20T18:41:41.910Z,1.35
2022-08-20T18:44:13.420Z,1.50
2022-08-20T18:46:56.426Z,1.33
2022-08-20T18:49:35.879Z,1.33
2022-08-20T18:52:22.491Z,1.30
2022-08-20T18:54:54.399Z,1.35
2022-08-20T18:57:28.755Z,1.43
2022-08-20T19:00:13.444Z,1.30
2022-08-20T19:03:03.397Z,1.25
2022-08-20T19:05:40.237Z,1.27
2022-08-20T19:08:07.893Z,1.40
2022-08-20T19:11:03.290Z,1.38
2022-08-20T19:14:20.656Z,1.70
2022-08-20T19:16:58.808Z,1.20
2022-08-20T19:19:30.808Z,1.00
2022-08-20T19:22:01.964Z,1.48
2022-08-20T19:24:33.200Z,1.10
2022-08-20T19:27:06.579Z,1.40
2022-08-20T19:29:46.118Z,1.10
2022-08-20T19:32:21.200Z,1.20
2022-08-20T19:34:54.521Z,1.10
2022-08-20T19:37:35.536Z,1.10
2022-08-20T19:40:21.588Z,1.20
2022-08-20T19:42:49.387Z,1.33
2022-08-20T19:45:28.513Z,1.25
2022-08-20T19:48:43.616Z,1.65
2022-08-20T19:51:27.634Z,1.23
2022-08-20T19:53:55.447Z,1.33
2022-08-20T19:56:26.266Z,1.55
2022-08-20T19:59:04.423Z,1.80
2022-08-20T20:01:33.178Z,1.40
2022-08-20T20:04:06.318Z,1.35
2022-08-20T20:09:13.744Z,1.52
2022-08-20T20:11:45.735Z,1.55
2022-08-20T20:14:15.787Z,1.58
2022-08-20T20:16:45.535Z,1.40
2022-08-20T20:19:26.329Z,1.30
2022-08-20T20:22:19.151Z,2.45
2022-08-20T20:25:24.684Z,1.23
2022-08-20T20:27:56.676Z,1.55
2022-08-20T20:30:30.451Z,1.60
2022-08-20T20:32:59.936Z,1.60
2022-08-20T20:35:31.609Z,1.63
2022-08-20T20:38:22.114Z,1.73
2022-08-20T20:41:00.259Z,2.20
2022-08-20T20:43:41.391Z,2.08
2022-08-20T20:46:20.162Z,1.70
2022-08-20T20:48:53.809Z,1.60
2022-08-20T20:51:33.239Z,1.77
2022-08-20T20:54:06.876Z,1.88
2022-08-20T20:56:41.326Z,1.52
2022-08-20T20:59:10.526Z,1.42
2022-08-20T21:01:49.087Z,1.60
2022-08-20T21:04:23.160Z,1.77
2022-08-20T21:06:52.146Z,1.77
2022-08-20T21:09:21.191Z,2.35
2022-08-20T21:11:49.847Z,2.60
2022-08-20T21:14:18.101Z,3.38
2022-08-20T21:16:45.706Z,3.00
2022-08-20T21:19:13.871Z,2.85
2022-08-20T21:21:41.984Z,3.65
2022-08-20T21:24:09.317Z,3.53
2022-08-20T21:26:37.599Z,3.58
2022-08-20T21:29:07.590Z,3.38
2022-08-20T21:31:40.315Z,3.33
2022-08-20T21:34:15.479Z,3.15
2022-08-20T21:36:42.818Z,2.60
2022-08-20T21:39:10.538Z,2.88
2022-08-20T21:41:38.485Z,2.70
2022-08-20T21:44:34.943Z,2.78
2022-08-20T21:47:02.227Z,2.88
2022-08-20T21:49:31.396Z,2.58
2022-08-20T21:51:59.231Z,2.80
2022-08-20T21:54:27.289Z,1.92
2022-08-20T21:56:58.924Z,1.90
2022-08-20T21:59:26.171Z,2.10
2022-08-20T22:01:53.695Z,2.50
2022-08-20T22:04:21.391Z,2.70
2022-08-20T22:06:49.307Z,1.75
2022-08-20T22:09:16.823Z,1.48
2022-08-20T22:11:44.176Z,2.08
2022-08-20T22:14:15.232Z,2.03
2022-08-20T22:16:42.966Z,1.98
2022-08-20T22:19:16.081Z,1.55
2022-08-20T22:21:44.217Z,1.58
2022-08-20T22:24:13.296Z,1.63
2022-08-20T22:26:41.575Z,1.67
2022-08-20T22:29:11.111Z,1.23
2022-08-20T22:31:41.191Z,1.40
2022-08-20T22:34:11.323Z,1.95
2022-08-20T22:36:39.619Z,1.95
2022-08-20T22:39:07.791Z,2.30
2022-08-20T22:41:35.561Z,2.33
2022-08-20T22:44:03.058Z,2.08
2022-08-20T22:46:34.887Z,2.10
2022-08-20T22:49:03.502Z,1.73
2022-08-20T22:51:36.032Z,1.88
2022-08-20T22:54:10.440Z,1.77
2022-08-20T22:56:38.923Z,2.28
2022-08-20T22:59:08.142Z,2.13
2022-08-20T23:01:36.166Z,2.40
2022-08-20T23:04:09.604Z,2.28
2022-08-20T23:06:36.908Z,1.95
2022-08-20T23:09:04.647Z,2.80
2022-08-20T23:11:32.543Z,2.42
2022-08-20T23:13:59.811Z,2.05
2022-08-20T23:16:27.232Z,2.20
2022-08-20T23:18:54.483Z,2.75
2022-08-20T23:21:22.049Z,2.35
2022-08-20T23:23:49.302Z,2.60
2022-08-20T23:26:21.297Z,2.40
2022-08-20T23:28:48.617Z,1.95
2022-08-20T23:31:16.110Z,2.88
2022-08-20T23:33:44.912Z,2.33
2022-08-20T23:36:16.463Z,3.17
2022-08-20T23:38:43.687Z,2.35
2022-08-20T23:41:10.935Z,2.65
2022-08-20T23:43:38.774Z,2.30
2022-08-20T23:46:08.248Z,2.47
2022-08-20T23:48:36.180Z,2.35
2022-08-20T23:51:05.044Z,2.00
2022-08-20T23:53:32.303Z,2.95
2022-08-20T23:55:59.507Z,2.05
2022-08-20T23:58:26.788Z,2.08
